Beijing Capital International Airport

ZBAA · 北京市, 中国

罗盘
风向 的 Běijīng Shǒudū Guójì Jīcháng 18L/36R
风: 0 kt, 0 beaufort


改变
0 1.000 2.000 3.000 4.000 5.000
CAVOK
METAR ZBAA 081900Z 00000MPS CAVOK M06/M10 Q1025 NOSIG

METAR Běijīng Shǒudū Guójì Jīcháng - ZBAA/PEK

Běijīng Shǒudū Guójì Jīcháng是,中国中的大型机场。 该机场有4条跑道: 18L/36R, 18R/36L, 19/1 和 18/36. 该领域的国际民航组织标志是ZBAA 它的国际航空运输协会代码是PEK.

这份报告是针对2022年12月9日 03:00, 当地时间在Běijīng Shǒudū Guójì Jīcháng进行的。

机场观察

可变方向的风很小或没有风。

天气为CAVOK。这意味着在5.000 ft或MSA(最低安全高度)以下(以较高者为准)以下没有云。这也意味着没有观测到积雨云或高耸的积云,可见度为10 km 或者更多或更高。此外,不会有雾,降雨或其他重要天气。

温度和风寒是-6 °C。 露点为-10 °C,相对湿度为74%。 海平面上的气压为1025 hPa (QNH)。

白天

今天,太阳从07:22升起,在16:48降落。 这适用于Běijīng Shǒudū Guójì Jīcháng,世界夏令时可能有所不同。 当地时间与世界标准时间之间的时差为+8 小时。 当前,没有夏令时有效。

公司介绍

在这个机场,你可以找到飞行俱乐部。 本场上唯一已知的公司是空中云端连飞平台。

体会

到Vliegles.nl去找飞行课程,跳伞和其他飞行体验。 浏览页面,了解Běijīng Shǒudū Guójì Jīcháng附近所有可用的活动。 你也可以使用搜索功能来寻找你所在地附近的特定飞行课程、跳伞或其他飞行体验。

跑道

Id 标题 侧风 逆风 侧风 %
18L/36R 173°-353°
18R/36L 173°-353°
19/1 173°-353°
18/36 173°-353°

逆风成分最大的方向会被突出显示,并用于横风计算。 这并不一定意味着这个方向在使用。

温度 & 天气

温度 -6 °C
露点 -10 °C
相对湿度 74%
Kp-index 1 (0-9)

白天

日出
07:22 (4:06)
中午
12:05
日落
16:48

小工具

你想在你的网站上有一个关于Běijīng Shǒudū Guójì Jīcháng的当前航空天气(METAR)的小部件吗?

显示HTML代码

我们和第三方通过cookies跟踪您在我们网站上的互联网行为。如果你继续,我们认为你同意我们的饼干政策